Buena Vista, Indiana
Current Conditions -  °F | °C
As of 7:15 PM on Sunday 25 Jan 2015 (Local Time) from KI67 Reporting Station
Overcast Overcast  
Wind Chill: 34°   Ceiling: 2000
Heat Index: 37°   Visibility: 5mi
Dew Point: 36°   Wind: 5mph
Humidity: 93%   Direction: 30°NNE
Pressure: 29.7"   Gusts: NA
Location:  39.4846°N, 85.1967°W
Report Text: KI67 260015Z AUTO 03004KT 5SM OVC020 03/02 A2970 RMK AO1 P0001
Loading
Personal Weather Stations






























Interactive Weather Map New forecast layout! Learn more

10-Day Weather Forecast

Advertisements
Track Severe Weather on mobile